Date,TemperatureHighF,TemperatureAvgF,TemperatureLowF,DewpointHighF,DewpointAvgF,DewpointLowF,HumidityHigh,HumidityAvg,HumidityLow,PressureMaxIn,PressureMinIn,WindSpeedMaxMPH,WindSpeedAvgMPH,GustSpeedMaxMPH,PrecipitationSumIn
2013-1-1,18,11,3,-100,-100,-100,0,0,100,0.00,40.00,0,-999,0,0.00
2013-1-2,21,2,-13,-100,-100,-100,0,0,100,0.00,40.00,0,-999,0,0.00
2013-1-3,32,2,-17,-100,-100,-100,0,0,100,0.00,40.00,0,-999,0,0.01
2013-1-4,34,2,-15,-100,-100,-100,0,0,100,0.00,40.00,0,-999,0,0.00
2013-1-5,29,2,-16,-100,-100,-100,0,0,100,0.00,40.00,0,-999,0,0.00
2013-1-6,30,15,-3,-100,-100,-100,0,0,100,0.00,40.00,0,-999,0,0.01
2013-1-7,22,13,1,-100,-100,-100,0,0,100,0.00,40.00,0,-999,0,0.00
2013-1-8,27,23,20,-100,-100,-100,0,0,100,0.00,40.00,0,-999,0,0.01
2013-1-9,40,32,27,-100,-100,-100,0,0,100,0.00,40.00,0,-999,0,0.01
2013-1-10,34,28,19,-100,-100,-100,0,0,100,0.00,40.00,0,-999,0,0.02
2013-1-11,15,8,1,-100,-100,-100,0,0,100,0.00,40.00,0,-999,0,0.01
2013-1-12,14,0,-17,-100,-100,-100,0,0,100,0.00,40.00,0,-999,0,0.00
2013-1-13,18,-10,-28,-100,-100,-100,0,0,100,0.00,40.00,0,-999,0,0.00
2013-1-14,5,-9,-28,-100,-100,-100,0,0,100,0.00,40.00,0,-999,0,0.01
2013-1-15,13,5,-4,-100,-100,-100,0,0,100,0.00,40.00,0,-999,0,0.01
2013-1-16,19,13,7,-100,-100,-100,0,0,100,0.00,40.00,0,-999,0,0.01
2013-1-17,28,3,-13,-100,-100,-100,0,0,100,0.00,40.00,0,-999,0,0.01
2013-1-18,35,8,-7,-100,-100,-100,0,0,100,0.00,40.00,0,-999,0,0.01
2013-1-19,32,4,-15,-100,-100,-100,0,0,100,0.00,40.00,0,-999,0,0.00
2013-1-20,36,11,-5,-100,-100,-100,0,0,100,0.00,40.00,0,-999,0,0.00
2013-1-21,38,7,-10,-100,-100,-100,0,0,100,0.00,40.00,0,-999,0,0.00
2013-1-22,40,9,-11,-100,-100,-100,0,0,100,0.00,40.00,0,-999,0,0.00
2013-1-23,35,18,3,-100,-100,-100,0,0,100,0.00,40.00,0,-999,0,0.01
2013-1-24,32,28,23,-100,-100,-100,0,0,100,0.00,40.00,0,-999,0,0.01
2013-1-25,36,34,31,-100,-100,-100,0,0,100,0.00,40.00,0,-999,0,0.01
2013-1-26,36,35,34,-100,-100,-100,0,0,100,0.00,40.00,0,-999,0,0.02
2013-1-27,35,31,24,-100,-100,-100,0,0,100,0.00,40.00,0,-999,0,0.02
2013-1-28,33,22,17,-100,-100,-100,0,0,100,0.00,40.00,0,-999,0,0.02
2013-1-29,30,20,15,-100,-100,-100,0,0,100,0.00,40.00,0,-999,0,0.01
2013-1-30,28,23,17,-100,-100,-100,0,0,100,0.00,40.00,0,-999,0,0.01
2013-1-31,32,29,23,-100,-100,-100,0,0,100,0.00,40.00,0,-999,0,0.00
2013-2-1,35,29,27,-100,-100,-100,0,0,100,0.00,40.00,0,-999,0,0.00
2013-2-2,33,28,20,-100,-100,-100,0,0,100,0.00,40.00,0,-999,0,0.00
2013-2-3,33,24,14,-100,-100,-100,0,0,100,0.00,40.00,0,-999,0,0.00
2013-2-4,29,26,24,-100,-100,-100,0,0,100,0.00,40.00,0,-999,0,0.00
2013-2-5,40,30,22,-100,-100,-100,0,0,100,0.00,40.00,0,-999,0,0.00
2013-2-6,20,18,17,-100,-100,-100,0,0,100,0.00,40.00,0,-999,0,0.00
2013-2-14,35,27,18,-100,-100,-100,0,0,100,0.00,40.00,0,-999,0,0.00
2013-2-15,32,24,20,-100,-100,-100,0,0,100,0.00,40.00,0,-999,0,0.00
2013-2-16,35,29,25,-100,-100,-100,0,0,100,0.00,40.00,0,-999,0,0.00
2013-2-17,35,27,19,-100,-100,-100,0,0,100,0.00,40.00,0,-999,0,0.00
2013-2-18,35,15,-1,-100,-100,-100,0,0,100,0.00,40.00,0,-999,0,0.00
2013-2-19,35,20,3,-100,-100,-100,0,0,100,0.00,40.00,0,-999,0,0.00
2013-2-20,38,30,18,-100,-100,-100,0,0,100,0.00,40.00,0,-999,0,0.01
2013-2-21,33,20,5,-100,-100,-100,0,0,100,0.00,40.00,0,-999,0,0.00
2013-2-22,28,23,15,-100,-100,-100,0,0,100,0.00,40.00,0,-999,0,0.01
2013-2-23,29,26,25,-100,-100,-100,0,0,100,0.00,40.00,0,-999,0,0.02
2013-2-25,26,22,20,-100,-100,-100,0,0,100,0.00,40.00,0,-999,0,0.00
2013-2-26,37,17,1,-100,-100,-100,0,0,100,0.00,40.00,0,-999,0,0.00
2013-2-27,31,20,14,-100,-100,-100,0,0,100,0.00,40.00,0,-999,0,0.01
2013-2-28,30,23,16,-100,-100,-100,0,0,100,0.00,40.00,0,-999,0,0.01
2013-3-1,34,29,23,-100,-100,-100,0,0,100,0.00,40.00,0,-999,0,0.01
2013-3-2,42,35,31,-100,-100,-100,0,0,100,0.00,40.00,0,-999,0,0.00
2013-3-3,35,32,18,-100,-100,-100,0,0,100,0.00,40.00,0,-999,0,0.02
2013-3-4,35,18,-1,-100,-100,-100,0,0,100,0.00,40.00,0,-999,0,0.01
2013-3-5,38,18,-6,-100,-100,-100,0,0,100,0.00,40.00,0,-999,0,0.00
2013-3-6,36,26,9,-100,-100,-100,0,0,100,0.00,40.00,0,-999,0,0.02
2013-3-7,44,31,26,-100,-100,-100,0,0,100,0.00,40.00,0,-999,0,0.01
2013-3-8,44,33,22,-100,-100,-100,0,0,100,0.00,40.00,0,-999,0,0.01
2013-3-9,45,27,10,-100,-100,-100,0,0,100,0.00,40.00,0,-999,0,0.00
2013-3-10,44,25,1,-100,-100,-100,0,0,100,0.00,40.00,0,-999,0,0.00
2013-3-11,44,33,24,-100,-100,-100,0,0,100,0.00,40.00,0,-999,0,0.00
2013-3-12,44,28,9,-100,-100,-100,0,0,100,0.00,40.00,0,-999,0,0.00
2013-3-13,48,40,33,-100,-100,-100,0,0,100,0.00,40.00,0,-999,0,0.00
2013-3-14,55,40,26,-100,-100,-100,0,0,100,0.00,40.00,0,-999,0,0.00
2013-3-15,53,39,31,-100,-100,-100,0,0,100,0.00,40.00,0,-999,0,0.00
2013-3-16,50,36,22,-100,-100,-100,0,0,100,0.00,40.00,0,-999,0,0.00
2013-3-17,38,31,20,-100,-100,-100,0,0,100,0.00,40.00,0,-999,0,0.00
2013-3-18,40,23,12,-100,-100,-100,0,0,100,0.00,40.00,0,-999,0,0.00
2013-3-19,44,29,11,-100,-100,-100,0,0,100,0.00,40.00,0,-999,0,0.00
2013-3-20,39,29,17,-100,-100,-100,0,0,100,0.00,40.00,0,-999,0,0.01
2013-3-21,42,33,23,-100,-100,-100,0,0,100,0.00,40.00,0,-999,0,0.01
2013-3-22,39,22,14,-100,-100,-100,0,0,100,0.00,40.00,0,-999,0,0.00
2013-3-23,37,18,-2,-100,-100,-100,0,0,100,0.00,40.00,0,-999,0,0.00
2013-3-24,39,14,-10,-100,-100,-100,0,0,100,0.00,40.00,0,-999,0,0.00
2013-3-25,41,18,-10,-100,-100,-100,0,0,100,0.00,40.00,0,-999,0,0.00
2013-3-26,49,26,8,-100,-100,-100,0,0,100,0.00,40.00,0,-999,0,0.01
2013-3-27,47,35,28,-100,-100,-100,0,0,100,0.00,40.00,0,-999,0,0.00
2013-3-28,58,37,21,-100,-100,-100,0,0,100,0.00,40.00,0,-999,0,0.00
2013-3-29,57,39,27,-100,-100,-100,0,0,100,0.00,40.00,0,-999,0,0.00
2013-3-30,57,38,29,-100,-100,-100,0,0,100,0.00,40.00,0,-999,0,0.00
2013-3-31,57,37,21,-100,-100,-100,0,0,100,0.00,40.00,0,-999,0,0.00
2013-4-1,62,42,25,-100,-100,-100,0,0,100,0.00,40.00,0,-999,0,0.00
2013-4-2,62,43,27,-100,-100,-100,0,0,100,0.00,40.00,0,-999,0,0.00
2013-4-3,62,42,29,-100,-100,-100,0,0,100,0.00,40.00,0,-999,0,0.00
2013-4-4,60,43,30,-100,-100,-100,0,0,100,0.00,40.00,0,-999,0,0.00
2013-4-5,47,40,36,-100,-100,-100,0,0,100,0.00,40.00,0,-999,0,0.00
2013-4-6,42,36,31,-100,-100,-100,0,0,100,0.00,40.00,0,-999,0,0.01
2013-4-7,42,36,35,-100,-100,-100,0,0,100,0.00,40.00,0,-999,0,0.02
2013-4-8,35,32,24,-100,-100,-100,0,0,100,0.00,40.00,0,-999,0,0.02
2013-4-9,40,26,20,-100,-100,-100,0,0,100,0.00,40.00,0,-999,0,0.00
2013-4-10,48,34,13,-100,-100,-100,0,0,100,0.00,40.00,0,-999,0,0.01
2013-4-11,54,41,29,-100,-100,-100,0,0,100,0.00,40.00,0,-999,0,0.00
2013-4-12,51,37,26,-100,-100,-100,0,0,100,0.00,40.00,0,-999,0,0.00
2013-4-13,45,36,29,-100,-100,-100,0,0,100,0.00,40.00,0,-999,0,0.00
2013-4-14,44,32,23,-100,-100,-100,0,0,100,0.00,40.00,0,-999,0,0.00
2013-4-15,40,30,21,-100,-100,-100,0,0,100,0.00,40.00,0,-999,0,0.00
2013-4-16,36,26,19,-100,-100,-100,0,0,100,0.00,40.00,0,-999,0,0.00
2013-4-17,38,26,15,-100,-100,-100,0,0,100,0.00,40.00,0,-999,0,0.01
2013-4-18,47,28,6,-100,-100,-100,0,0,100,0.00,40.00,0,-999,0,0.00
2013-4-19,40,34,29,-100,-100,-100,0,0,100,0.00,40.00,0,-999,0,0.01
2013-4-20,53,39,33,-100,-100,-100,0,0,100,0.00,40.00,0,-999,0,0.01
2013-4-21,49,38,30,-100,-100,-100,0,0,100,0.00,40.00,0,-999,0,0.00
2013-4-22,40,30,23,-100,-100,-100,0,0,100,0.00,40.00,0,-999,0,0.00
2013-4-23,46,30,13,-100,-100,-100,0,0,100,0.00,40.00,0,-999,0,0.00
2013-4-24,52,45,32,-100,-100,-100,0,0,100,0.00,40.00,0,-999,0,0.00
2013-4-25,59,41,24,-100,-100,-100,0,0,100,0.00,40.00,0,-999,0,0.00
2013-4-26,63,47,27,-100,-100,-100,0,0,100,0.00,40.00,0,-999,0,0.00
2013-4-27,64,45,30,-100,-100,-100,0,0,100,0.00,40.00,0,-999,0,0.01
2013-4-28,57,45,35,-100,-100,-100,0,0,100,0.00,40.00,0,-999,0,0.01
2013-4-29,54,43,30,-100,-100,-100,0,0,100,0.00,40.00,0,-999,0,0.00
2013-4-30,43,35,27,-100,-100,-100,0,0,100,0.00,40.00,0,-999,0,0.00
2013-5-1,46,36,24,-100,-100,-100,0,0,100,0.00,40.00,0,-999,0,0.00
2013-5-2,55,38,21,-100,-100,-100,0,0,100,0.00,40.00,0,-999,0,0.00
2013-5-3,58,45,30,-100,-100,-100,0,0,100,0.00,40.00,0,-999,0,0.01
2013-5-4,54,44,38,-100,-100,-100,0,0,100,0.00,40.00,0,-999,0,0.00
2013-5-5,61,48,40,-100,-100,-100,0,0,100,0.00,40.00,0,-999,0,0.00
2013-5-6,68,47,37,-100,-100,-100,0,0,100,0.00,40.00,0,-999,0,0.00
2013-5-7,68,46,31,-100,-100,-100,0,0,100,0.00,40.00,0,-999,0,0.00
2013-5-8,68,53,41,-100,-100,-100,0,0,100,0.00,40.00,0,-999,0,0.00
2013-5-9,65,49,33,-100,-100,-100,0,0,100,0.00,40.00,0,-999,0,0.01
2013-5-10,68,48,35,-100,-100,-100,0,0,100,0.00,40.00,0,-999,0,0.00
2013-5-11,69,51,35,-100,-100,-100,0,0,100,0.00,40.00,0,-999,0,0.01
2013-5-12,74,55,38,-100,-100,-100,0,0,100,0.00,40.00,0,-999,0,0.00
2013-5-13,76,60,40,-100,-100,-100,0,0,100,0.00,40.00,0,-999,0,0.00
2013-5-14,71,56,36,-100,-100,-100,0,0,100,0.00,40.00,0,-999,0,0.00
2013-5-15,74,54,34,-100,-100,-100,0,0,100,0.00,40.00,0,-999,0,0.01
2013-5-16,62,53,41,-100,-100,-100,0,0,100,0.00,40.00,0,-999,0,0.00
2013-5-17,52,48,45,-100,-100,-100,0,0,100,0.00,40.00,0,-999,0,0.00
2013-5-18,51,44,42,-100,-100,-100,0,0,100,0.00,40.00,0,-999,0,0.02
2013-5-19,52,44,39,-100,-100,-100,0,0,100,0.00,40.00,0,-999,0,0.02
2013-5-20,59,47,35,-100,-100,-100,0,0,100,0.00,40.00,0,-999,0,0.01
2013-5-21,63,50,33,-100,-100,-100,0,0,100,0.00,40.00,0,-999,0,0.01
2013-5-22,65,51,41,-100,-100,-100,0,0,100,0.00,40.00,0,-999,0,0.01
2013-5-23,60,47,37,-100,-100,-100,0,0,100,0.00,40.00,0,-999,0,0.01
2013-5-24,58,45,31,-100,-100,-100,0,0,100,0.00,40.00,0,-999,0,0.01
2013-5-25,64,49,32,-100,-100,-100,0,0,100,0.00,40.00,0,-999,0,0.01
2013-5-26,65,50,35,-100,-100,-100,0,0,100,0.00,40.00,0,-999,0,0.00
2013-5-27,58,46,37,-100,-100,-100,0,0,100,0.00,40.00,0,-999,0,0.01
2013-5-28,55,46,41,-100,-100,-100,0,0,100,0.00,40.00,0,-999,0,0.01
2013-5-29,50,45,42,-100,-100,-100,0,0,100,0.00,40.00,0,-999,0,0.00
2013-5-30,56,45,36,-100,-100,-100,0,0,100,0.00,40.00,0,-999,0,0.02
2013-5-31,61,45,30,-100,-100,-100,0,0,100,0.00,40.00,0,-999,0,0.01
2013-6-1,65,48,32,-100,-100,-100,0,0,100,0.00,40.00,0,-999,0,0.00
2013-6-2,71,54,35,-100,-100,-100,0,0,100,0.00,40.00,0,-999,0,0.01
2013-6-3,60,49,34,-100,-100,-100,0,0,100,0.00,40.00,0,-999,0,0.00
2013-6-4,61,51,43,-100,-100,-100,0,0,100,0.00,40.00,0,-999,0,0.01
2013-6-5,72,53,33,-100,-100,-100,0,0,100,0.00,40.00,0,-999,0,0.01
2013-6-6,71,57,39,-100,-100,-100,0,0,100,0.00,40.00,0,-999,0,0.02
2013-6-7,74,56,40,-100,-100,-100,0,0,100,0.00,40.00,0,-999,0,0.01
2013-6-8,76,60,47,-100,-100,-100,0,0,100,0.00,40.00,0,-999,0,0.01
2013-6-9,77,59,38,-100,-100,-100,0,0,100,0.00,40.00,0,-999,0,0.01
2013-6-10,79,61,45,-100,-100,-100,0,0,100,0.00,40.00,0,-999,0,0.00
2013-6-11,71,60,46,-100,-100,-100,0,0,100,0.00,40.00,0,-999,0,0.01
2013-6-12,66,54,46,-100,-100,-100,0,0,100,0.00,40.00,0,-999,0,0.00
2013-6-13,68,56,46,-100,-100,-100,0,0,100,0.00,40.00,0,-999,0,0.03
2013-6-14,54,43,35,-100,-100,-100,0,0,100,0.00,40.00,0,-999,0,0.00
2013-6-15,70,52,31,-100,-100,-100,0,0,100,0.00,40.00,0,-999,0,0.03
2013-6-16,78,57,34,-100,-100,-100,0,0,100,0.00,40.00,0,-999,0,0.01
2013-6-17,79,65,47,-100,-100,-100,0,0,100,0.00,40.00,0,-999,0,0.01
2013-6-18,81,64,40,-100,-100,-100,0,0,100,0.00,40.00,0,-999,0,0.01
2013-6-19,70,55,43,-100,-100,-100,0,0,100,0.00,40.00,0,-999,0,0.01
2013-6-20,55,43,39,-100,-100,-100,0,0,100,0.00,40.00,0,-999,0,0.00
2013-6-22,59,50,43,-100,-100,-100,0,0,100,0.00,40.00,0,-999,0,0.00
2013-6-23,70,54,34,-100,-100,-100,0,0,100,0.00,40.00,0,-999,0,0.03
2013-6-24,72,59,42,-100,-100,-100,0,0,100,0.00,40.00,0,-999,0,0.01
2013-6-25,62,52,49,-100,-100,-100,0,0,100,0.00,40.00,0,-999,0,0.01
2013-6-26,70,59,48,-100,-100,-100,0,0,100,0.00,40.00,0,-999,0,0.02
2013-6-27,82,61,43,-100,-100,-100,0,0,100,0.00,40.00,0,-999,0,0.01
2013-6-28,88,70,48,-100,-100,-100,0,0,100,0.00,40.00,0,-999,0,0.00
2013-6-29,89,68,51,-100,-100,-100,0,0,100,0.00,40.00,0,-999,0,0.00
2013-6-30,85,70,51,-100,-100,-100,0,0,100,0.00,40.00,0,-999,0,0.02
2013-7-1,89,70,56,-100,-100,-100,0,0,100,0.00,40.00,0,-999,0,0.00
2013-7-2,89,72,58,-100,-100,-100,0,0,100,0.00,40.00,0,-999,0,0.00
2013-7-3,90,69,51,-100,-100,-100,0,0,100,0.00,40.00,0,-999,0,0.00
2013-7-4,85,65,50,-100,-100,-100,0,0,100,0.00,40.00,0,-999,0,0.00
2013-7-5,77,63,51,-100,-100,-100,0,0,100,0.00,40.00,0,-999,0,0.02
2013-7-6,76,55,46,-100,-100,-100,0,0,100,0.00,40.00,0,-999,0,0.03
2013-7-7,79,62,45,-100,-100,-100,0,0,100,0.00,40.00,0,-999,0,0.02
2013-7-8,79,58,45,-100,-100,-100,0,0,100,0.00,40.00,0,-999,0,0.01
2013-7-9,83,62,47,-100,-100,-100,0,0,100,0.00,40.00,0,-999,0,0.01
2013-7-10,86,65,44,-100,-100,-100,0,0,100,0.00,40.00,0,-999,0,0.00
2013-7-11,73,59,48,-100,-100,-100,0,0,100,0.00,40.00,0,-999,0,0.01
2013-7-12,75,60,46,-100,-100,-100,0,0,100,0.00,40.00,0,-999,0,0.03
2013-7-13,79,64,44,-100,-100,-100,0,0,100,0.00,40.00,0,-999,0,0.01
2013-7-14,82,62,45,-100,-100,-100,0,0,100,0.00,40.00,0,-999,0,0.00
2013-7-15,86,60,47,-100,-100,-100,0,0,100,0.00,40.00,0,-999,0,0.00
2013-7-16,79,65,51,-100,-100,-100,0,0,100,0.00,40.00,0,-999,0,0.02
2013-7-17,84,66,56,-100,-100,-100,0,0,100,0.00,40.00,0,-999,0,0.01
2013-7-18,85,69,54,-100,-100,-100,0,0,100,0.00,40.00,0,-999,0,0.00
2013-7-19,87,64,48,-100,-100,-100,0,0,100,0.00,40.00,0,-999,0,0.00
2013-7-20,87,64,46,-100,-100,-100,0,0,100,0.00,40.00,0,-999,0,0.01
2013-7-21,85,65,45,-100,-100,-100,0,0,100,0.00,40.00,0,-999,0,0.00
2013-7-22,86,61,41,-100,-100,-100,0,0,100,0.00,40.00,0,-999,0,0.00
2013-7-23,88,64,44,-100,-100,-100,0,0,100,0.00,40.00,0,-999,0,0.00
2013-7-24,87,69,49,-100,-100,-100,0,0,100,0.00,40.00,0,-999,0,0.01
2013-7-25,84,63,45,-100,-100,-100,0,0,100,0.00,40.00,0,-999,0,0.01
2013-7-26,84,60,46,-100,-100,-100,0,0,100,0.00,40.00,0,-999,0,0.01
2013-7-27,71,58,47,-100,-100,-100,0,0,100,0.00,40.00,0,-999,0,0.00
2013-7-28,76,58,44,-100,-100,-100,0,0,100,0.00,40.00,0,-999,0,0.02
2013-7-29,78,57,42,-100,-100,-100,0,0,100,0.00,40.00,0,-999,0,0.02
2013-7-30,76,59,42,-100,-100,-100,0,0,100,0.00,40.00,0,-999,0,0.01
2013-7-31,83,65,51,-100,-100,-100,0,0,100,0.00,40.00,0,-999,0,0.01
2013-8-1,84,68,54,-100,-100,-100,0,0,100,0.00,40.00,0,-999,0,0.00
2013-8-2,74,59,44,-100,-100,-100,0,0,100,0.00,40.00,0,-999,0,0.01
2013-8-3,79,60,41,-100,-100,-100,0,0,100,0.00,40.00,0,-999,0,0.02
2013-8-4,86,64,41,-100,-100,-100,0,0,100,0.00,40.00,0,-999,0,0.00
2013-8-5,83,61,42,-100,-100,-100,0,0,100,0.00,40.00,0,-999,0,0.00
2013-8-6,80,64,46,-100,-100,-100,0,0,100,0.00,40.00,0,-999,0,0.00
2013-8-7,83,62,45,-100,-100,-100,0,0,100,0.00,40.00,0,-999,0,0.00
2013-8-8,84,62,46,-100,-100,-100,0,0,100,0.00,40.00,0,-999,0,0.01
2013-8-9,81,64,49,-100,-100,-100,0,0,100,0.00,40.00,0,-999,0,0.02
2013-8-10,85,68,49,-100,-100,-100,0,0,100,0.00,40.00,0,-999,0,0.01
2013-8-11,85,65,45,-100,-100,-100,0,0,100,0.00,40.00,0,-999,0,0.01
2013-8-12,84,68,48,-100,-100,-100,0,0,100,0.00,40.00,0,-999,0,0.00
2013-8-13,79,58,42,-100,-100,-100,0,0,100,0.00,40.00,0,-999,0,0.01
2013-8-14,85,62,44,-100,-100,-100,0,0,100,0.00,40.00,0,-999,0,0.00
2013-8-15,90,64,45,-100,-100,-100,0,0,100,0.00,40.00,0,-999,0,0.01
2013-8-16,89,64,40,-100,-100,-100,0,0,100,0.00,40.00,0,-999,0,0.00
2013-8-17,90,67,47,-100,-100,-100,0,0,100,0.00,40.00,0,-999,0,0.00
2013-8-18,88,72,50,-100,-100,-100,0,0,100,0.00,40.00,0,-999,0,0.00
2013-8-19,86,64,44,-100,-100,-100,0,0,100,0.00,40.00,0,-999,0,0.01
2013-8-20,87,66,45,-100,-100,-100,0,0,100,0.00,40.00,0,-999,0,0.00
2013-8-21,75,61,45,-100,-100,-100,0,0,100,0.00,40.00,0,-999,0,0.01
2013-8-22,84,63,49,-100,-100,-100,0,0,100,0.00,40.00,0,-999,0,0.01
2013-8-23,82,64,48,-100,-100,-100,0,0,100,0.00,40.00,0,-999,0,0.00
2013-8-24,77,65,52,-100,-100,-100,0,0,100,0.00,40.00,0,-999,0,0.01
2013-8-25,79,63,46,-100,-100,-100,0,0,100,0.00,40.00,0,-999,0,0.01
2013-8-26,75,64,51,-100,-100,-100,0,0,100,0.00,40.00,0,-999,0,0.01
2013-8-27,75,59,47,-100,-100,-100,0,0,100,0.00,40.00,0,-999,0,0.00
2013-8-28,78,69,52,-100,-100,-100,0,0,100,0.00,40.00,0,-999,0,0.01
2013-8-29,82,64,45,-100,-100,-100,0,0,100,0.00,40.00,0,-999,0,0.00
2013-8-30,86,66,47,-100,-100,-100,0,0,100,0.00,40.00,0,-999,0,0.00
2013-8-31,83,60,42,-100,-100,-100,0,0,100,0.00,40.00,0,-999,0,0.00
2013-9-1,88,63,41,-100,-100,-100,0,0,100,0.00,40.00,0,-999,0,0.01
2013-9-2,69,57,48,-100,-100,-100,0,0,100,0.00,40.00,0,-999,0,0.00
2013-9-3,80,57,45,-100,-100,-100,0,0,100,0.00,40.00,0,-999,0,0.03
2013-9-4,79,63,53,-100,-100,-100,0,0,100,0.00,40.00,0,-999,0,0.01
2013-9-5,79,60,47,-100,-100,-100,0,0,100,0.00,40.00,0,-999,0,0.01
2013-9-6,80,62,48,-100,-100,-100,0,0,100,0.00,40.00,0,-999,0,0.00
2013-9-7,75,60,47,-100,-100,-100,0,0,100,0.00,40.00,0,-999,0,0.00
2013-9-8,72,58,47,-100,-100,-100,0,0,100,0.00,40.00,0,-999,0,0.01
2013-9-9,70,55,45,-100,-100,-100,0,0,100,0.00,40.00,0,-999,0,0.03
2013-9-10,78,61,43,-100,-100,-100,0,0,100,0.00,40.00,0,-999,0,0.02
2013-9-11,79,66,50,-100,-100,-100,0,0,100,0.00,40.00,0,-999,0,0.00
2013-9-12,67,58,54,-100,-100,-100,0,0,100,0.00,40.00,0,-999,0,0.01
2013-9-13,69,55,43,-100,-100,-100,0,0,100,0.00,40.00,0,-999,0,0.01
2013-9-14,62,54,44,-100,-100,-100,0,0,100,0.00,40.00,0,-999,0,0.01
2013-9-15,69,58,49,-100,-100,-100,0,0,100,0.00,40.00,0,-999,0,0.01
2013-9-16,74,56,43,-100,-100,-100,0,0,100,0.00,40.00,0,-999,0,0.02
2013-9-17,64,51,46,-100,-100,-100,0,0,100,0.00,40.00,0,-999,0,0.01
2013-9-18,46,43,36,-100,-100,-100,0,0,100,0.00,40.00,0,-999,0,0.04
2013-9-19,58,42,32,-100,-100,-100,0,0,100,0.00,40.00,0,-999,0,0.04
2013-9-20,68,50,31,-100,-100,-100,0,0,100,0.00,40.00,0,-999,0,0.00
2013-9-21,69,48,34,-100,-100,-100,0,0,100,0.00,40.00,0,-999,0,0.01
2013-9-22,61,50,42,-100,-100,-100,0,0,100,0.00,40.00,0,-999,0,0.01
2013-9-23,57,44,36,-100,-100,-100,0,0,100,0.00,40.00,0,-999,0,0.00
2013-9-24,58,45,35,-100,-100,-100,0,0,100,0.00,40.00,0,-999,0,0.01
2013-9-25,45,41,37,-100,-100,-100,0,0,100,0.00,40.00,0,-999,0,0.00
2013-9-26,47,38,34,-100,-100,-100,0,0,100,0.00,40.00,0,-999,0,0.99
2013-9-27,48,40,35,-100,-100,-100,0,0,100,0.00,40.00,0,-999,0,0.02
2013-9-28,47,40,35,-100,-100,-100,0,0,100,0.00,40.00,0,-999,0,0.00
2013-10-2,52,41,30,-100,-100,-100,0,0,100,0.00,40.00,0,-999,0,0.00
2013-10-3,38,35,32,-100,-100,-100,0,0,100,0.00,40.00,0,-999,0,0.02
2013-10-4,43,36,30,-100,-100,-100,0,0,100,0.00,40.00,0,-999,0,0.01
2013-10-5,49,36,20,-100,-100,-100,0,0,100,0.00,40.00,0,-999,0,0.00
2013-10-6,58,38,26,-100,-100,-100,0,0,100,0.00,40.00,0,-999,0,0.00
2013-10-7,61,43,28,-100,-100,-100,0,0,100,0.00,40.00,0,-999,0,0.00
2013-10-8,50,41,29,-100,-100,-100,0,0,100,0.00,40.00,0,-999,0,0.00
2013-10-9,54,39,27,-100,-100,-100,0,0,100,0.00,40.00,0,-999,0,0.00
2013-10-10,60,44,33,-100,-100,-100,0,0,100,0.00,40.00,0,-999,0,0.00
2013-10-11,48,37,30,-100,-100,-100,0,0,100,0.00,40.00,0,-999,0,0.00
2013-10-12,43,33,27,-100,-100,-100,0,0,100,0.00,40.00,0,-999,0,0.00
2013-10-13,38,36,35,-100,-100,-100,0,0,100,0.00,40.00,0,-999,0,0.01
2013-10-21,34,32,30,-100,-100,-100,0,0,100,0.00,40.00,0,-999,0,0.00
2013-10-22,59,39,26,-100,-100,-100,0,0,100,0.00,40.00,0,-999,0,0.00
2013-10-23,28,28,27,-100,-100,-100,0,0,100,0.00,40.00,0,-999,0,0.00
2013-10-24,61,58,54,-100,-100,-100,0,0,100,0.00,40.00,0,-999,0,0.00
2013-10-25,29,28,26,-100,-100,-100,0,0,100,0.00,40.00,0,-999,0,0.00
2013-10-26,28,27,26,-100,-100,-100,0,0,100,0.00,40.00,0,-999,0,0.00
2013-10-27,43,38,29,-100,-100,-100,0,0,100,0.00,40.00,0,-999,0,0.00
2013-11-10,46,34,27,-100,-100,-100,0,0,100,0.00,40.00,0,-999,0,0.00
2013-11-11,48,36,29,-100,-100,-100,0,0,100,0.00,40.00,0,-999,0,0.00
2013-11-12,56,36,27,-100,-100,-100,0,0,100,0.00,40.00,0,-999,0,0.00
2013-11-13,40,36,31,-100,-100,-100,0,0,100,0.00,40.00,0,-999,0,0.00
2013-11-14,37,32,29,-100,-100,-100,0,0,100,0.00,40.00,0,-999,0,0.00
2013-11-15,29,29,29,-100,-100,-100,0,0,100,0.00,40.00,0,-999,0,0.00
2013-11-16,28,25,18,-100,-100,-100,0,0,100,0.00,40.00,0,-999,0,0.04
2013-11-17,31,22,14,-100,-100,-100,0,0,100,0.00,40.00,0,-999,0,0.00
2013-11-18,39,31,26,-100,-100,-100,0,0,100,0.00,40.00,0,-999,0,0.00
2013-11-19,36,35,31,-100,-100,-100,0,0,100,0.00,40.00,0,-999,0,0.00
2013-11-20,36,29,19,-100,-100,-100,0,0,100,0.00,40.00,0,-999,0,0.02
2013-11-21,27,18,8,-100,-100,-100,0,0,100,0.00,40.00,0,-999,0,0.00
2013-11-22,28,10,-2,-100,-100,-100,0,0,100,0.00,40.00,0,-999,0,0.00
2013-11-23,43,28,17,-100,-100,-100,0,0,100,0.00,40.00,0,-999,0,0.00
2013-11-24,37,25,10,-100,-100,-100,0,0,100,0.00,40.00,0,-999,0,0.00
2013-11-25,23,16,9,-100,-100,-100,0,0,100,0.00,40.00,0,-999,0,0.00
2013-11-26,38,22,7,-100,-100,-100,0,0,100,0.00,40.00,0,-999,0,0.00
2013-11-27,43,25,13,-100,-100,-100,0,0,100,0.00,40.00,0,-999,0,0.00
2013-11-28,44,22,14,-100,-100,-100,0,0,100,0.00,40.00,0,-999,0,0.00
2013-11-29,41,25,9,-100,-100,-100,0,0,100,0.00,40.00,0,-999,0,0.00
2013-11-30,37,31,21,-100,-100,-100,0,0,100,0.00,40.00,0,-999,0,0.00
2013-12-1,34,33,32,-100,-100,-100,0,0,100,0.00,40.00,0,-999,0,0.01
2013-12-2,37,35,30,-100,-100,-100,0,0,100,0.00,40.00,0,-999,0,0.01
2013-12-3,10,7,1,-100,-100,-100,0,0,100,0.00,40.00,0,-999,0,0.00
2013-12-4,7,-2,-6,-100,-100,-100,0,0,100,0.00,40.00,0,-999,0,0.00
2013-12-5,12,-4,-21,-100,-100,-100,0,0,100,0.00,40.00,0,-999,0,0.00
2013-12-6,9,-10,-21,-100,-100,-100,0,0,100,0.00,40.00,0,-999,0,0.01
2013-12-7,7,2,-6,-100,-100,-100,0,0,100,0.00,40.00,0,-999,0,0.01
2013-12-8,4,-3,-7,-100,-100,-100,0,0,100,0.00,40.00,0,-999,0,0.00
2013-12-9,3,-5,-23,-100,-100,-100,0,0,100,0.00,40.00,0,-999,0,0.01
2013-12-10,14,9,4,-100,-100,-100,0,0,100,0.00,40.00,0,-999,0,0.01
2013-12-11,22,15,8,-100,-100,-100,0,0,100,0.00,40.00,0,-999,0,0.00
2013-12-12,18,8,-1,-100,-100,-100,0,0,100,0.00,40.00,0,-999,0,0.00
2013-12-13,27,19,10,-100,-100,-100,0,0,100,0.00,40.00,0,-999,0,0.00
2013-12-14,24,23,20,-100,-100,-100,0,0,100,0.00,40.00,0,-999,0,0.00
2013-12-15,28,26,24,-100,-100,-100,0,0,100,0.00,40.00,0,-999,0,0.00
2013-12-16,34,20,5,-100,-100,-100,0,0,100,0.00,40.00,0,-999,0,0.00
2013-12-17,24,13,5,-100,-100,-100,0,0,100,0.00,40.00,0,-999,0,0.00
2013-12-18,15,12,8,-100,-100,-100,0,0,100,0.00,40.00,0,-999,0,0.00
2013-12-19,28,18,-1,-100,-100,-100,0,0,100,0.00,40.00,0,-999,0,0.00
2013-12-20,17,2,-6,-100,-100,-100,0,0,100,0.00,40.00,0,-999,0,0.00
2013-12-21,23,18,16,-100,-100,-100,0,0,100,0.00,40.00,0,-999,0,0.01
2013-12-22,24,22,20,-100,-100,-100,0,0,100,0.00,40.00,0,-999,0,0.00
2013-12-23,21,20,19,-100,-100,-100,0,0,100,0.00,40.00,0,-999,0,0.00
2013-12-24,29,21,16,-100,-100,-100,0,0,100,0.00,40.00,0,-999,0,0.01
2013-12-25,27,24,21,-100,-100,-100,0,0,100,0.00,40.00,0,-999,0,0.00
2013-12-26,38,19,9,-100,-100,-100,0,0,100,0.00,40.00,0,-999,0,0.00
2013-12-27,8,2,-4,-100,-100,-100,0,0,100,0.00,40.00,0,-999,0,0.00
2013-12-28,27,26,26,-100,-100,-100,0,0,100,0.00,40.00,0,-999,0,0.00
2013-12-29,11,6,1,-100,-100,-100,0,0,100,0.00,40.00,0,-999,0,0.00
2013-12-30,26,23,20,-100,-100,-100,0,0,100,0.00,40.00,0,-999,0,0.00
2013-12-31,27,25,24,-100,-100,-100,0,0,100,0.00,40.00,0,-999,0,0.01
2014-1-1,26,24,21,-100,-100,-100,0,0,100,0.00,40.00,0,-999,0,0.00
2014-1-2,31,25,22,-100,-100,-100,0,0,100,0.00,40.00,0,-999,0,0.00